createdAt,value
2023-03-28T00:01:09.655Z,1.37
2023-03-28T00:03:41.307Z,1.33
2023-03-28T00:06:13.359Z,1.39
2023-03-28T00:08:46.068Z,1.33
2023-03-28T00:11:19.594Z,1.35
2023-03-28T00:13:53.695Z,1.40
2023-03-28T00:16:32.225Z,1.34
2023-03-28T00:19:05.648Z,1.45
2023-03-28T00:21:37.592Z,1.36
2023-03-28T00:24:10.897Z,1.37
2023-03-28T00:26:42.899Z,1.44
2023-03-28T00:29:15.798Z,1.50
2023-03-28T00:34:52.536Z,1.35
2023-03-28T00:40:39.259Z,1.29
2023-03-28T00:43:11.401Z,1.27
2023-03-28T00:45:43.150Z,1.17
2023-03-28T00:48:15.587Z,1.14
2023-03-28T00:50:49.547Z,1.06
2023-03-28T00:53:21.130Z,0.98
2023-03-28T00:55:53.047Z,0.96
2023-03-28T00:58:24.693Z,0.93
2023-03-28T01:00:56.212Z,0.87
2023-03-28T01:03:28.053Z,0.81
2023-03-28T01:05:59.845Z,0.77
2023-03-28T01:08:31.521Z,0.75
2023-03-28T01:11:03.612Z,0.71
2023-03-28T01:13:35.240Z,0.70
2023-03-28T01:16:07.046Z,0.70
2023-03-28T01:18:41.322Z,-0.70
2023-03-28T01:21:13.154Z,0.66
2023-03-28T01:23:44.664Z,0.62
2023-03-28T01:26:16.347Z,0.59
2023-03-28T01:28:47.958Z,0.60
2023-03-28T01:31:19.821Z,0.57
2023-03-28T01:33:51.352Z,0.58
2023-03-28T01:36:33.873Z,0.57
2023-03-28T01:39:08.706Z,0.62
2023-03-28T01:41:40.470Z,0.64
2023-03-28T01:44:12.007Z,0.74
2023-03-28T01:46:43.788Z,0.80
2023-03-28T01:49:15.537Z,0.87
2023-03-28T01:51:47.110Z,0.92
2023-03-28T01:54:18.807Z,0.94
2023-03-28T01:56:50.727Z,1.03
2023-03-28T01:59:22.638Z,1.07
2023-03-28T02:01:54.232Z,1.08
2023-03-28T02:04:26.048Z,1.10
2023-03-28T02:06:57.526Z,1.05
2023-03-28T02:09:29.041Z,1.02
2023-03-28T02:12:00.665Z,1.01
2023-03-28T02:14:32.570Z,1.11
2023-03-28T02:17:04.805Z,1.03
2023-03-28T02:19:38.214Z,0.98
2023-03-28T02:22:09.703Z,1.00
2023-03-28T02:24:41.780Z,0.97
2023-03-28T02:27:13.289Z,1.01
2023-03-28T02:29:45.015Z,0.81
2023-03-28T02:32:16.618Z,0.63
2023-03-28T02:34:49.217Z,0.58
2023-03-28T02:37:20.840Z,0.48
2023-03-28T02:39:52.389Z,0.47
2023-03-28T02:42:23.912Z,0.39
2023-03-28T02:44:55.545Z,0.39
2023-03-28T02:47:27.081Z,0.34
2023-03-28T02:49:58.603Z,0.33
2023-03-28T02:52:35.410Z,0.31
2023-03-28T02:55:07.369Z,-1.08
2023-03-28T02:57:38.863Z,0.26
2023-03-28T03:00:13.490Z,0.27
2023-03-28T03:02:45.140Z,0.30
2023-03-28T03:05:17.958Z,0.32
2023-03-28T03:07:49.873Z,0.29
2023-03-28T03:10:22.482Z,0.35
2023-03-28T03:12:54.288Z,0.37
2023-03-28T03:15:26.233Z,0.40
2023-03-28T03:17:58.638Z,0.44
2023-03-28T03:20:33.956Z,0.44
2023-03-28T03:23:06.209Z,0.45
2023-03-28T03:25:37.962Z,0.43
2023-03-28T03:28:09.892Z,0.41
2023-03-28T03:30:41.640Z,0.39
2023-03-28T03:33:16.786Z,0.36
2023-03-28T03:35:50.256Z,0.30
2023-03-28T03:38:21.856Z,0.27
2023-03-28T03:40:53.797Z,0.23
2023-03-28T03:43:27.697Z,0.23
2023-03-28T03:46:00.410Z,0.21
2023-03-28T03:48:32.180Z,0.22
2023-03-28T03:51:03.940Z,0.21
2023-03-28T03:53:35.433Z,0.16
2023-03-28T03:56:07.318Z,0.19
2023-03-28T03:58:38.837Z,0.18
2023-03-28T04:01:14.137Z,0.17
2023-03-28T04:03:47.940Z,0.17
2023-03-28T04:06:19.760Z,0.20
2023-03-28T04:08:54.159Z,0.21
2023-03-28T04:11:26.255Z,0.22
2023-03-28T04:13:57.729Z,0.18
2023-03-28T04:16:30.194Z,0.12
2023-03-28T04:19:13.860Z,0.10
2023-03-28T04:21:48.128Z,0.15
2023-03-28T04:24:21.042Z,0.15
2023-03-28T04:26:56.079Z,0.07
2023-03-28T04:29:30.890Z,0.01
2023-03-28T04:32:05.589Z,-0.01
2023-03-28T04:34:38.891Z,-0.06
2023-03-28T04:37:10.867Z,-0.08
2023-03-28T04:39:44.704Z,-0.10
2023-03-28T04:42:16.474Z,-0.14
2023-03-28T04:44:48.030Z,-0.17
2023-03-28T04:47:20.281Z,-0.16
2023-03-28T04:49:52.664Z,-0.17
2023-03-28T04:52:24.598Z,-0.09
2023-03-28T04:54:56.088Z,-0.05
2023-03-28T04:57:28.023Z,0.01
2023-03-28T04:59:59.517Z,-0.04
2023-03-28T05:02:31.610Z,-0.05
2023-03-28T05:05:03.742Z,-0.07
2023-03-28T05:07:35.921Z,-0.03
2023-03-28T05:10:07.550Z,0.01
2023-03-28T05:12:39.386Z,-0.02
2023-03-28T05:15:11.140Z,0.04
2023-03-28T05:17:53.296Z,0.04
2023-03-28T05:20:25.026Z,-0.02
2023-03-28T05:22:57.276Z,0.05
2023-03-28T05:25:28.761Z,0.14
2023-03-28T05:28:00.414Z,0.25
2023-03-28T05:30:32.050Z,0.23
2023-03-28T05:33:03.770Z,0.21
2023-03-28T05:35:37.356Z,0.12
2023-03-28T05:38:09.328Z,-0.03
2023-03-28T05:40:40.862Z,0.18
2023-03-28T05:43:12.800Z,0.41
2023-03-28T05:45:44.524Z,0.69
2023-03-28T05:48:16.413Z,1.01
2023-03-28T05:50:47.972Z,1.20
2023-03-28T05:53:20.538Z,1.20
2023-03-28T05:55:52.052Z,1.20
2023-03-28T05:58:24.366Z,1.06
2023-03-28T06:00:56.511Z,1.04
2023-03-28T06:03:31.766Z,0.85
2023-03-28T06:06:04.443Z,0.77
2023-03-28T06:08:36.422Z,0.94
2023-03-28T06:11:08.118Z,1.03
2023-03-28T06:13:39.944Z,0.98
2023-03-28T06:16:11.459Z,1.27
2023-03-28T06:18:43.339Z,1.19
2023-03-28T06:21:14.957Z,1.27
2023-03-28T06:23:46.711Z,1.27
2023-03-28T06:26:18.322Z,1.30
2023-03-28T06:28:50.146Z,1.49
2023-03-28T06:31:21.927Z,1.64
2023-03-28T06:33:54.067Z,1.76
2023-03-28T06:36:25.626Z,1.78
2023-03-28T06:38:58.395Z,1.84
2023-03-28T06:41:30.001Z,1.91
2023-03-28T06:44:01.505Z,1.95
2023-03-28T06:46:32.987Z,1.99
2023-03-28T06:49:04.854Z,2.34
2023-03-28T06:51:36.372Z,2.37
2023-03-28T06:54:08.267Z,2.58
2023-03-28T06:56:39.817Z,2.49
2023-03-28T06:59:11.556Z,2.62
2023-03-28T07:01:43.107Z,2.88
2023-03-28T07:04:14.987Z,2.78
2023-03-28T07:06:46.869Z,2.73
2023-03-28T07:09:18.798Z,2.96
2023-03-28T07:11:50.270Z,2.97
2023-03-28T07:14:21.762Z,3.37
2023-03-28T07:16:53.422Z,3.17
2023-03-28T07:19:25.302Z,3.18
2023-03-28T07:21:56.817Z,3.46
2023-03-28T07:24:28.424Z,3.26
2023-03-28T07:27:14.243Z,3.57
2023-03-28T07:29:47.657Z,3.61
2023-03-28T07:32:19.165Z,3.64
2023-03-28T07:34:51.215Z,3.80
2023-03-28T07:37:22.766Z,3.83
2023-03-28T07:39:56.409Z,3.94
2023-03-28T07:42:27.970Z,4.24
2023-03-28T07:44:59.467Z,4.25
2023-03-28T07:47:30.991Z,3.99
2023-03-28T07:50:04.021Z,4.33
2023-03-28T07:52:35.492Z,4.16
2023-03-28T07:55:07.611Z,4.33
2023-03-28T07:57:39.110Z,4.19
2023-03-28T08:00:13.414Z,4.67
2023-03-28T08:02:45.457Z,4.99
2023-03-28T08:05:17.068Z,5.21
2023-03-28T08:07:48.996Z,5.19
2023-03-28T08:10:20.981Z,5.15
2023-03-28T08:12:52.766Z,5.34
2023-03-28T08:15:24.251Z,5.65
2023-03-28T08:17:55.867Z,5.62
2023-03-28T08:20:27.365Z,5.47
2023-03-28T08:22:59.181Z,5.87
2023-03-28T08:25:30.672Z,6.09
2023-03-28T08:28:02.403Z,6.06
2023-03-28T08:30:33.914Z,5.84
2023-03-28T08:33:05.859Z,6.45
2023-03-28T08:35:37.458Z,6.82
2023-03-28T08:38:11.243Z,6.63
2023-03-28T08:40:42.942Z,5.83
2023-03-28T08:43:14.460Z,6.54
2023-03-28T08:45:46.030Z,6.63
2023-03-28T08:48:17.803Z,5.80
2023-03-28T08:50:49.330Z,6.52
2023-03-28T08:53:21.316Z,6.05
2023-03-28T08:55:53.699Z,6.54
2023-03-28T08:58:29.859Z,6.41
2023-03-28T09:01:01.475Z,6.74
2023-03-28T09:03:33.550Z,7.07
2023-03-28T09:06:05.611Z,7.24
2023-03-28T09:08:37.590Z,7.04
2023-03-28T09:11:09.246Z,6.19
2023-03-28T09:13:41.120Z,6.94
2023-03-28T09:16:12.645Z,6.46
2023-03-28T09:18:45.001Z,6.19
2023-03-28T09:21:16.687Z,6.40
2023-03-28T09:23:48.547Z,7.11
2023-03-28T09:26:22.168Z,6.74
2023-03-28T09:28:53.976Z,6.69
2023-03-28T09:31:27.122Z,7.36
2023-03-28T09:34:00.121Z,7.17
2023-03-28T09:36:41.303Z,8.10
2023-03-28T09:39:20.161Z,7.80
2023-03-28T09:41:52.515Z,7.02
2023-03-28T09:44:24.358Z,6.73
2023-03-28T09:46:56.354Z,7.21
2023-03-28T09:49:28.326Z,6.60
2023-03-28T09:51:59.797Z,6.63
2023-03-28T09:54:31.655Z,7.14
2023-03-28T09:57:03.585Z,6.42
2023-03-28T09:59:35.567Z,5.93
2023-03-28T10:02:07.062Z,6.35
2023-03-28T10:04:38.833Z,6.89
2023-03-28T10:07:10.623Z,7.17
2023-03-28T10:09:42.572Z,6.68
2023-03-28T10:12:14.052Z,6.57
2023-03-28T10:14:45.885Z,6.57
2023-03-28T10:17:17.372Z,7.24
2023-03-28T10:19:49.230Z,8.55
2023-03-28T10:22:21.031Z,8.74
2023-03-28T10:24:52.573Z,8.69
2023-03-28T10:27:24.494Z,8.03
2023-03-28T10:29:56.158Z,8.24
2023-03-28T10:32:27.700Z,7.49
2023-03-28T10:34:59.334Z,7.99
2023-03-28T10:37:31.743Z,8.72
2023-03-28T10:40:05.825Z,9.00
2023-03-28T10:42:37.395Z,8.65
2023-03-28T10:45:09.207Z,9.47
2023-03-28T10:47:40.924Z,9.37
2023-03-28T10:50:12.610Z,8.58
2023-03-28T10:52:44.181Z,8.01
2023-03-28T10:55:16.032Z,8.83
2023-03-28T10:57:47.544Z,8.61
2023-03-28T11:00:19.788Z,9.24
2023-03-28T11:02:51.657Z,9.74
2023-03-28T11:05:23.744Z,9.39
2023-03-28T11:07:55.442Z,7.94
2023-03-28T11:10:27.236Z,7.42
2023-03-28T11:12:59.302Z,9.34
2023-03-28T11:15:31.592Z,10.07
2023-03-28T11:18:03.125Z,8.95
2023-03-28T11:20:35.014Z,9.65
2023-03-28T11:23:06.955Z,9.69
2023-03-28T11:25:38.850Z,10.45
2023-03-28T11:28:10.343Z,11.17
2023-03-28T11:30:41.828Z,11.43
2023-03-28T11:33:13.960Z,8.76
2023-03-28T11:35:46.130Z,9.63
2023-03-28T11:38:20.045Z,11.00
2023-03-28T11:40:51.930Z,11.51
2023-03-28T11:43:23.474Z,10.47
2023-03-28T11:45:54.986Z,10.91
2023-03-28T11:48:26.514Z,11.94
2023-03-28T11:50:58.244Z,10.92
2023-03-28T11:53:30.319Z,11.55
2023-03-28T11:56:02.949Z,10.60
2023-03-28T11:58:34.439Z,10.10
2023-03-28T12:01:06.603Z,8.82
2023-03-28T12:03:38.601Z,9.04
2023-03-28T12:06:11.018Z,8.32
2023-03-28T12:08:42.647Z,9.38
2023-03-28T12:11:14.538Z,9.93
2023-03-28T12:13:48.325Z,9.52
2023-03-28T12:16:24.376Z,11.27
2023-03-28T12:18:58.525Z,10.83
2023-03-28T12:21:30.037Z,11.16
2023-03-28T12:24:01.980Z,10.86
2023-03-28T12:26:33.459Z,11.52
2023-03-28T12:29:05.253Z,10.16
2023-03-28T12:31:38.108Z,8.87
2023-03-28T12:34:09.925Z,8.86
2023-03-28T12:36:41.429Z,10.57
2023-03-28T12:39:13.333Z,10.89
2023-03-28T12:41:44.829Z,10.51
2023-03-28T12:44:16.494Z,10.90
2023-03-28T12:46:47.984Z,10.53
2023-03-28T12:49:19.906Z,9.28
2023-03-28T12:51:51.480Z,7.17
2023-03-28T12:54:22.998Z,10.32
2023-03-28T12:56:54.499Z,10.48
2023-03-28T12:59:26.952Z,10.63
2023-03-28T13:01:58.487Z,11.34
2023-03-28T13:04:30.446Z,11.55
2023-03-28T13:07:03.149Z,10.93
2023-03-28T13:09:34.945Z,11.35
2023-03-28T13:12:06.537Z,10.99
2023-03-28T13:14:38.457Z,11.31
2023-03-28T13:17:10.317Z,11.38
2023-03-28T13:19:42.257Z,11.50
2023-03-28T13:22:13.739Z,10.95
2023-03-28T13:24:45.652Z,12.35
2023-03-28T13:27:17.712Z,11.23
2023-03-28T13:29:49.451Z,10.92
2023-03-28T13:32:20.922Z,11.43
2023-03-28T13:34:52.764Z,12.11
2023-03-28T13:37:24.259Z,12.21
2023-03-28T13:39:56.293Z,12.48
2023-03-28T13:42:27.860Z,12.83
2023-03-28T13:44:59.398Z,11.74
2023-03-28T13:47:31.323Z,12.12
2023-03-28T13:50:03.317Z,11.24
2023-03-28T13:52:34.821Z,12.16
2023-03-28T13:55:06.674Z,11.55
2023-03-28T13:57:38.148Z,11.46
2023-03-28T14:00:12.040Z,11.17
2023-03-28T14:02:43.672Z,11.34
2023-03-28T14:05:15.753Z,10.70
2023-03-28T14:07:47.328Z,9.49
2023-03-28T14:10:19.233Z,11.11
2023-03-28T14:12:50.703Z,11.64
2023-03-28T14:15:22.657Z,11.85
2023-03-28T14:17:54.241Z,12.07
2023-03-28T14:20:26.048Z,11.58
2023-03-28T14:23:00.962Z,11.55
2023-03-28T14:25:33.356Z,12.32
2023-03-28T14:28:05.247Z,12.40
2023-03-28T14:30:36.771Z,11.43
2023-03-28T14:33:08.951Z,11.72
2023-03-28T14:35:46.040Z,12.38
2023-03-28T14:38:17.619Z,12.47
2023-03-28T14:40:49.129Z,11.91
2023-03-28T14:43:20.628Z,11.56
2023-03-28T14:45:54.112Z,11.40
2023-03-28T14:48:26.645Z,11.99
2023-03-28T14:50:58.237Z,12.63
2023-03-28T14:53:30.204Z,12.61
2023-03-28T14:56:04.018Z,12.10
2023-03-28T14:58:36.786Z,11.99
2023-03-28T15:01:09.200Z,12.12
2023-03-28T15:03:41.513Z,11.96
2023-03-28T15:06:13.461Z,12.24
2023-03-28T15:08:45.055Z,12.11
2023-03-28T15:11:16.630Z,12.60
2023-03-28T15:13:48.180Z,12.26
2023-03-28T15:16:20.130Z,11.62
2023-03-28T15:18:51.740Z,11.43
2023-03-28T15:21:24.058Z,11.70
2023-03-28T15:23:55.770Z,11.98
2023-03-28T15:26:28.117Z,11.97
2023-03-28T15:28:59.596Z,11.73
2023-03-28T15:31:31.394Z,10.51
2023-03-28T15:34:02.967Z,10.33
2023-03-28T15:36:34.871Z,10.55
2023-03-28T15:39:06.514Z,9.96
2023-03-28T15:41:38.321Z,9.58
2023-03-28T15:44:10.321Z,9.21
2023-03-28T15:46:42.261Z,8.54
2023-03-28T15:49:14.085Z,8.32
2023-03-28T15:51:46.086Z,8.21
2023-03-28T15:54:30.329Z,7.89
2023-03-28T15:57:03.481Z,7.93
2023-03-28T15:59:35.098Z,7.80
2023-03-28T16:02:07.018Z,7.86
2023-03-28T16:04:38.596Z,7.84
2023-03-28T16:07:10.501Z,7.82
2023-03-28T16:09:43.225Z,7.86
2023-03-28T16:12:14.924Z,7.75
2023-03-28T16:14:47.383Z,7.63
2023-03-28T16:17:18.940Z,7.69
2023-03-28T16:19:50.595Z,7.68
2023-03-28T16:22:22.490Z,7.84
2023-03-28T16:24:54.001Z,7.93
2023-03-28T16:27:26.097Z,8.08
2023-03-28T16:29:57.985Z,8.14
2023-03-28T16:32:29.869Z,8.08
2023-03-28T16:35:01.437Z,8.12
2023-03-28T16:37:32.960Z,7.94
2023-03-28T16:40:04.819Z,7.93
2023-03-28T16:42:36.304Z,7.71
2023-03-28T16:45:11.345Z,7.52
2023-03-28T16:47:42.906Z,7.58
2023-03-28T16:50:14.914Z,7.51
2023-03-28T16:52:46.426Z,7.42
2023-03-28T16:55:18.245Z,7.41
2023-03-28T16:57:49.732Z,7.40
2023-03-28T17:00:23.028Z,7.42
2023-03-28T17:02:54.917Z,7.34
2023-03-28T17:05:27.283Z,7.20
2023-03-28T17:07:59.614Z,7.20
2023-03-28T17:10:31.606Z,7.12
2023-03-28T17:13:03.128Z,7.10
2023-03-28T17:15:35.368Z,7.02
2023-03-28T17:18:06.998Z,6.85
2023-03-28T17:20:38.603Z,6.77
2023-03-28T17:23:10.096Z,6.71
2023-03-28T17:25:53.805Z,6.59
2023-03-28T17:28:26.396Z,6.51
2023-03-28T17:30:57.967Z,6.46
2023-03-28T17:33:31.164Z,6.39
2023-03-28T17:36:03.040Z,6.34
2023-03-28T17:38:34.720Z,6.26
2023-03-28T17:41:07.438Z,6.20
2023-03-28T17:43:38.914Z,6.14
2023-03-28T17:46:10.802Z,6.07
2023-03-28T17:48:42.425Z,6.01
2023-03-28T17:51:14.312Z,5.93
2023-03-28T17:53:46.936Z,5.82
2023-03-28T17:56:18.721Z,5.79
2023-03-28T17:58:50.259Z,5.77
2023-03-28T18:01:22.825Z,5.72
2023-03-28T18:03:54.465Z,5.69
2023-03-28T18:06:26.345Z,5.62
2023-03-28T18:08:57.813Z,5.54
2023-03-28T18:11:29.744Z,5.47
2023-03-28T18:14:01.339Z,5.45
2023-03-28T18:16:33.679Z,5.42
2023-03-28T18:19:06.750Z,5.34
2023-03-28T18:21:38.631Z,5.27
2023-03-28T18:24:10.120Z,5.21
2023-03-28T18:26:42.226Z,5.15
2023-03-28T18:29:14.346Z,5.02
2023-03-28T18:31:46.265Z,4.99
2023-03-28T18:34:17.803Z,4.90
2023-03-28T18:36:49.649Z,4.88
2023-03-28T18:39:23.072Z,4.81
2023-03-28T18:41:54.691Z,4.80
2023-03-28T18:44:26.184Z,4.75
2023-03-28T18:46:58.292Z,4.66
2023-03-28T18:49:30.823Z,4.58
2023-03-28T18:52:05.739Z,4.57
2023-03-28T18:54:37.650Z,4.60
2023-03-28T18:57:09.360Z,4.59
2023-03-28T18:59:41.742Z,4.60
2023-03-28T19:02:14.265Z,4.60
2023-03-28T19:04:46.551Z,4.62
2023-03-28T19:07:18.497Z,4.58
2023-03-28T19:09:50.147Z,4.52
2023-03-28T19:12:21.914Z,4.45
2023-03-28T19:14:53.407Z,4.44
2023-03-28T19:17:25.161Z,4.44
2023-03-28T19:19:56.696Z,4.45
2023-03-28T19:22:28.476Z,4.45
2023-03-28T19:25:00.062Z,4.47
2023-03-28T19:27:31.997Z,4.48
2023-03-28T19:30:04.223Z,4.49
2023-03-28T19:32:36.494Z,4.46
2023-03-28T19:35:08.011Z,4.44
2023-03-28T19:37:39.969Z,4.47
2023-03-28T19:40:16.365Z,4.44
2023-03-28T19:42:48.285Z,4.36
2023-03-28T19:45:19.777Z,4.31
2023-03-28T19:47:51.838Z,4.30
2023-03-28T19:50:23.408Z,4.34
2023-03-28T19:52:54.994Z,4.34
2023-03-28T19:55:26.548Z,4.33
2023-03-28T19:57:58.325Z,4.29
2023-03-28T20:00:29.807Z,4.22
2023-03-28T20:03:02.899Z,4.13
2023-03-28T20:05:34.659Z,4.12
2023-03-28T20:08:06.611Z,4.07
2023-03-28T20:10:38.160Z,4.02
2023-03-28T20:13:09.701Z,4.01
2023-03-28T20:15:41.376Z,4.01
2023-03-28T20:18:19.726Z,3.97
2023-03-28T20:20:51.814Z,3.89
2023-03-28T20:23:23.885Z,3.85
2023-03-28T20:25:55.557Z,3.83
2023-03-28T20:28:29.893Z,3.76
2023-03-28T20:31:01.655Z,3.72
2023-03-28T20:33:33.530Z,3.68
2023-03-28T20:36:05.883Z,3.61
2023-03-28T20:38:37.897Z,3.55
2023-03-28T20:41:09.408Z,3.53
2023-03-28T20:43:47.429Z,3.50
2023-03-28T20:46:19.880Z,3.45
2023-03-28T20:48:52.236Z,3.36
2023-03-28T20:51:26.252Z,3.30
2023-03-28T20:53:58.644Z,3.25
2023-03-28T20:56:30.577Z,3.20
2023-03-28T20:59:04.308Z,3.14
2023-03-28T21:01:39.813Z,3.01
2023-03-28T21:04:11.717Z,2.99
2023-03-28T21:06:45.323Z,2.93
2023-03-28T21:09:18.060Z,2.87
2023-03-28T21:11:50.274Z,2.78
2023-03-28T21:14:21.825Z,2.86
2023-03-28T21:16:54.293Z,2.84
2023-03-28T21:19:26.093Z,2.82
2023-03-28T21:21:57.632Z,2.86
2023-03-28T21:24:29.318Z,2.90
2023-03-28T21:27:00.857Z,2.91
2023-03-28T21:29:32.622Z,2.92
2023-03-28T21:32:04.768Z,2.93
2023-03-28T21:34:36.704Z,2.88
2023-03-28T21:37:08.556Z,2.92
2023-03-28T21:39:40.120Z,2.93
2023-03-28T21:42:12.478Z,2.84
2023-03-28T21:44:44.015Z,2.73
2023-03-28T21:47:15.916Z,2.78
2023-03-28T21:49:49.400Z,2.83
2023-03-28T21:52:21.164Z,2.86
2023-03-28T21:54:52.703Z,2.87
2023-03-28T21:57:24.607Z,2.69
2023-03-28T21:59:56.167Z,2.69
2023-03-28T22:02:27.812Z,2.68
2023-03-28T22:04:59.390Z,2.66
2023-03-28T22:07:31.361Z,2.64
2023-03-28T22:10:03.879Z,2.63
2023-03-28T22:12:35.742Z,2.59
2023-03-28T22:15:07.783Z,2.61
2023-03-28T22:17:41.150Z,2.59
2023-03-28T22:20:12.748Z,2.57
2023-03-28T22:22:45.325Z,2.56
2023-03-28T22:25:16.835Z,2.49
2023-03-28T22:27:48.609Z,2.43
2023-03-28T22:30:20.441Z,2.41
2023-03-28T22:32:52.400Z,2.38
2023-03-28T22:35:23.934Z,2.32
2023-03-28T22:37:55.469Z,2.30
2023-03-28T22:40:27.029Z,2.28
2023-03-28T22:42:58.553Z,2.22
2023-03-28T22:45:30.112Z,2.20
2023-03-28T22:48:03.556Z,2.16
2023-03-28T22:50:35.093Z,2.14
2023-03-28T22:53:07.168Z,2.12
2023-03-28T22:55:38.707Z,2.08
2023-03-28T22:58:10.460Z,2.06
2023-03-28T23:00:43.712Z,2.03
2023-03-28T23:03:15.701Z,1.98
2023-03-28T23:05:47.705Z,1.94
2023-03-28T23:08:19.569Z,1.90
2023-03-28T23:10:51.608Z,1.84
2023-03-28T23:13:23.523Z,1.76
2023-03-28T23:15:55.446Z,1.71
2023-03-28T23:18:27.424Z,1.69
2023-03-28T23:20:59.130Z,1.70
2023-03-28T23:23:32.666Z,1.66
2023-03-28T23:26:04.190Z,1.62
2023-03-28T23:28:36.353Z,1.59
2023-03-28T23:31:07.873Z,1.60
2023-03-28T23:33:40.021Z,1.60
2023-03-28T23:36:11.884Z,1.58
2023-03-28T23:38:43.822Z,1.58
2023-03-28T23:41:15.538Z,1.55
2023-03-28T23:43:47.091Z,1.54
2023-03-28T23:46:18.738Z,1.52
2023-03-28T23:48:51.057Z,1.51
2023-03-28T23:51:24.389Z,1.43
2023-03-28T23:53:56.319Z,1.44
2023-03-28T23:56:27.868Z,1.44
2023-03-28T23:58:59.550Z,1.47
